Schluersburg, Missouri
Current Conditions -  °F | °C
As of 3:55 PM on Sunday 25 Jan 2015 (Local Time) from KFYG Reporting Station
Light Rain Light Rain  
Wind Chill: 32°   Ceiling: 900
Heat Index: 39°   Visibility: 5mi
Dew Point: 37°   Wind: 13mph
Humidity: 93%   Direction: 350°N
Pressure: 29.74"   Gusts: 28mph
Location:  38.6039°N, 90.8829°W
Report Text: KFYG 252155Z AUTO 35011G24KT 5SM -RA BKN009 04/03 A2974 RMK AO2 P0001
Loading
Personal Weather Stations






























Interactive Weather Map New forecast layout! Learn more

10-Day Weather Forecast

Advertisements
Track Severe Weather on mobile